sensor_id;sensor_type;location;lat;lon;timestamp;pressure;altitude;pressure_sealevel;temperature;humidity
5812;BME280;2932;52.400;9.558;2022-10-04T00:02:18;101741.56;;;15.51;73.17
5812;BME280;2932;52.400;9.558;2022-10-04T00:04:58;101733.41;;;15.71;72.22
5812;BME280;2932;52.400;9.558;2022-10-04T00:07:31;101732.69;;;15.74;72.08
5812;BME280;2932;52.400;9.558;2022-10-04T00:10:12;101729.38;;;15.56;72.12
5812;BME280;2932;52.400;9.558;2022-10-04T00:12:47;101730.16;;;15.16;73.08
5812;BME280;2932;52.400;9.558;2022-10-04T00:15:18;101732.47;;;15.02;73.69
5812;BME280;2932;52.400;9.558;2022-10-04T00:17:59;101725.16;;;15.10;73.89
5812;BME280;2932;52.400;9.558;2022-10-04T00:25:56;101727.56;;;15.23;73.44
5812;BME280;2932;52.400;9.558;2022-10-04T00:31:21;101713.19;;;15.09;73.87
5812;BME280;2932;52.400;9.558;2022-10-04T00:47:18;101706.91;;;16.20;70.72
5812;BME280;2932;52.400;9.558;2022-10-04T00:49:47;101708.53;;;16.21;70.79
5812;BME280;2932;52.400;9.558;2022-10-04T00:52:19;101693.44;;;15.94;70.79
5812;BME280;2932;52.400;9.558;2022-10-04T00:54:52;101691.91;;;15.97;71.15
5812;BME280;2932;52.400;9.558;2022-10-04T00:57:27;101698.22;;;16.10;71.06
5812;BME280;2932;52.400;9.558;2022-10-04T01:00:00;101710.09;;;15.91;70.96
5812;BME280;2932;52.400;9.558;2022-10-04T01:02:42;101694.03;;;15.88;71.25
5812;BME280;2932;52.400;9.558;2022-10-04T01:05:33;101687.41;;;15.92;70.86
5812;BME280;2932;52.400;9.558;2022-10-04T01:08:03;101677.50;;;16.11;70.68
5812;BME280;2932;52.400;9.558;2022-10-04T01:13:16;101670.03;;;16.15;70.81
5812;BME280;2932;52.400;9.558;2022-10-04T01:23:35;101674.31;;;15.81;72.36
5812;BME280;2932;52.400;9.558;2022-10-04T01:26:04;101683.69;;;15.88;72.72
5812;BME280;2932;52.400;9.558;2022-10-04T01:28:31;101673.09;;;15.94;72.51
5812;BME280;2932;52.400;9.558;2022-10-04T01:30:56;101669.94;;;15.95;72.25
5812;BME280;2932;52.400;9.558;2022-10-04T01:33:22;101667.63;;;16.13;71.74
5812;BME280;2932;52.400;9.558;2022-10-04T01:35:49;101666.44;;;16.14;71.23
5812;BME280;2932;52.400;9.558;2022-10-04T01:38:14;101660.75;;;16.11;71.66
5812;BME280;2932;52.400;9.558;2022-10-04T01:40:48;101666.91;;;16.16;71.54
5812;BME280;2932;52.400;9.558;2022-10-04T01:43:22;101670.16;;;16.18;71.42
5812;BME280;2932;52.400;9.558;2022-10-04T01:45:57;101680.34;;;16.26;71.71
5812;BME280;2932;52.400;9.558;2022-10-04T01:48:26;101676.63;;;16.22;71.62
5812;BME280;2932;52.400;9.558;2022-10-04T01:50:59;101684.13;;;16.34;71.22
5812;BME280;2932;52.400;9.558;2022-10-04T01:53:31;101675.03;;;16.37;71.08
5812;BME280;2932;52.400;9.558;2022-10-04T01:56:06;101670.97;;;16.34;71.26
5812;BME280;2932;52.400;9.558;2022-10-04T01:58:40;101667.97;;;16.43;70.78
5812;BME280;2932;52.400;9.558;2022-10-04T02:01:18;101665.91;;;16.40;70.98
5812;BME280;2932;52.400;9.558;2022-10-04T02:06:21;101666.09;;;16.47;70.52
5812;BME280;2932;52.400;9.558;2022-10-04T02:08:49;101656.28;;;16.38;70.38
5812;BME280;2932;52.400;9.558;2022-10-04T02:11:17;101655.91;;;16.23;70.60
5812;BME280;2932;52.400;9.558;2022-10-04T02:13:47;101652.47;;;16.14;70.94
5812;BME280;2932;52.400;9.558;2022-10-04T02:16:15;101647.72;;;16.15;71.37
5812;BME280;2932;52.400;9.558;2022-10-04T02:18:42;101646.44;;;16.12;70.89
5812;BME280;2932;52.400;9.558;2022-10-04T02:21:10;101642.75;;;16.24;71.04
5812;BME280;2932;52.400;9.558;2022-10-04T02:23:36;101632.94;;;16.30;70.70
5812;BME280;2932;52.400;9.558;2022-10-04T02:26:04;101631.06;;;16.34;70.96
5812;BME280;2932;52.400;9.558;2022-10-04T02:28:31;101629.34;;;16.29;71.08
5812;BME280;2932;52.400;9.558;2022-10-04T02:30:57;101630.97;;;16.30;70.93
5812;BME280;2932;52.400;9.558;2022-10-04T02:33:45;101620.16;;;16.29;71.37
5812;BME280;2932;52.400;9.558;2022-10-04T02:36:11;101620.16;;;16.29;71.67
5812;BME280;2932;52.400;9.558;2022-10-04T02:38:50;101622.47;;;16.43;71.41
5812;BME280;2932;52.400;9.558;2022-10-04T02:41:25;101622.22;;;16.32;71.05
5812;BME280;2932;52.400;9.558;2022-10-04T02:43:53;101607.19;;;16.37;71.06
5812;BME280;2932;52.400;9.558;2022-10-04T02:46:27;101613.31;;;16.26;71.25
5812;BME280;2932;52.400;9.558;2022-10-04T02:49:00;101608.63;;;16.30;71.19
5812;BME280;2932;52.400;9.558;2022-10-04T02:51:33;101617.19;;;16.22;71.28
5812;BME280;2932;52.400;9.558;2022-10-04T02:56:53;101611.50;;;16.18;71.32
5812;BME280;2932;52.400;9.558;2022-10-04T02:59:20;101612.69;;;16.17;71.31
5812;BME280;2932;52.400;9.558;2022-10-04T03:04:20;101617.44;;;16.17;71.69
5812;BME280;2932;52.400;9.558;2022-10-04T03:06:48;101612.31;;;16.19;71.82
5812;BME280;2932;52.400;9.558;2022-10-04T03:09:15;101611.31;;;16.11;71.82
5812;BME280;2932;52.400;9.558;2022-10-04T03:11:42;101607.25;;;16.09;71.85
5812;BME280;2932;52.400;9.558;2022-10-04T03:14:25;101610.34;;;16.19;71.26
5812;BME280;2932;52.400;9.558;2022-10-04T03:16:54;101603.56;;;16.20;71.30
5812;BME280;2932;52.400;9.558;2022-10-04T03:19:21;101600.59;;;16.13;71.76
5812;BME280;2932;52.400;9.558;2022-10-04T03:21:50;101595.94;;;16.17;71.84
5812;BME280;2932;52.400;9.558;2022-10-04T03:24:29;101591.06;;;16.14;71.66
5812;BME280;2932;52.400;9.558;2022-10-04T03:26:56;101590.78;;;16.19;71.52
5812;BME280;2932;52.400;9.558;2022-10-04T03:29:26;101582.69;;;16.14;71.80
5812;BME280;2932;52.400;9.558;2022-10-04T03:31:54;101581.41;;;16.12;72.06
5812;BME280;2932;52.400;9.558;2022-10-04T03:34:40;101577.53;;;16.16;71.60
5812;BME280;2932;52.400;9.558;2022-10-04T03:37:14;101579.00;;;16.10;72.30
5812;BME280;2932;52.400;9.558;2022-10-04T03:39:45;101579.78;;;16.11;72.16
5812;BME280;2932;52.400;9.558;2022-10-04T03:42:17;101580.50;;;16.08;72.48
5812;BME280;2932;52.400;9.558;2022-10-04T03:44:48;101575.66;;;16.05;72.58
5812;BME280;2932;52.400;9.558;2022-10-04T03:47:26;101574.38;;;16.02;72.55
5812;BME280;2932;52.400;9.558;2022-10-04T03:49:54;101576.66;;;15.96;72.39
5812;BME280;2932;52.400;9.558;2022-10-04T03:52:53;101579.50;;;16.00;72.51
5812;BME280;2932;52.400;9.558;2022-10-04T03:55:21;101575.22;;;15.87;73.08
5812;BME280;2932;52.400;9.558;2022-10-04T03:57:48;101569.81;;;15.94;73.08
5812;BME280;2932;52.400;9.558;2022-10-04T04:00:16;101564.75;;;15.99;73.30
5812;BME280;2932;52.400;9.558;2022-10-04T04:05:33;101567.03;;;15.94;73.08
5812;BME280;2932;52.400;9.558;2022-10-04T04:08:16;101563.22;;;16.02;72.76
5812;BME280;2932;52.400;9.558;2022-10-04T04:10:47;101566.66;;;15.95;72.82
5812;BME280;2932;52.400;9.558;2022-10-04T04:15:45;101573.56;;;16.01;72.46
5812;BME280;2932;52.400;9.558;2022-10-04T04:18:22;101578.66;;;15.96;72.31
5812;BME280;2932;52.400;9.558;2022-10-04T04:20:49;101571.25;;;15.88;72.61
5812;BME280;2932;52.400;9.558;2022-10-04T04:23:26;101574.03;;;15.88;72.40
5812;BME280;2932;52.400;9.558;2022-10-04T04:25:54;101577.19;;;15.86;72.58
5812;BME280;2932;52.400;9.558;2022-10-04T04:28:36;101578.66;;;15.96;72.16
5812;BME280;2932;52.400;9.558;2022-10-04T04:33:32;101569.00;;;15.93;71.73
5812;BME280;2932;52.400;9.558;2022-10-04T04:36:04;101563.78;;;15.92;71.82
5812;BME280;2932;52.400;9.558;2022-10-04T04:38:31;101566.47;;;15.88;71.82
5812;BME280;2932;52.400;9.558;2022-10-04T04:41:06;101565.44;;;15.65;72.27
5812;BME280;2932;52.400;9.558;2022-10-04T04:43:34;101571.38;;;15.63;72.48
5812;BME280;2932;52.400;9.558;2022-10-04T04:46:00;101573.91;;;15.68;72.33
5812;BME280;2932;52.400;9.558;2022-10-04T04:48:26;101569.25;;;15.73;72.31
5812;BME280;2932;52.400;9.558;2022-10-04T04:50:54;101573.56;;;15.70;72.55
5812;BME280;2932;52.400;9.558;2022-10-04T04:53:27;101572.09;;;15.60;72.43
5812;BME280;2932;52.400;9.558;2022-10-04T04:55:57;101572.09;;;15.60;72.32
5812;BME280;2932;52.400;9.558;2022-10-04T04:58:26;101573.47;;;15.39;72.95
5812;BME280;2932;52.400;9.558;2022-10-04T05:00:56;101577.22;;;15.30;73.68
5812;BME280;2932;52.400;9.558;2022-10-04T05:03:23;101583.03;;;15.25;73.66
5812;BME280;2932;52.400;9.558;2022-10-04T05:05:50;101575.72;;;15.21;73.46
5812;BME280;2932;52.400;9.558;2022-10-04T05:08:26;101573.22;;;15.44;73.15
5812;BME280;2932;52.400;9.558;2022-10-04T05:16:42;101563.78;;;15.48;72.37
5812;BME280;2932;52.400;9.558;2022-10-04T05:22:17;101570.28;;;15.52;72.60
5812;BME280;2932;52.400;9.558;2022-10-04T05:24:45;101565.31;;;15.46;72.78
5812;BME280;2932;52.400;9.558;2022-10-04T05:27:14;101570.53;;;15.47;72.65
5812;BME280;2932;52.400;9.558;2022-10-04T05:30:01;101570.53;;;15.47;72.83
5812;BME280;2932;52.400;9.558;2022-10-04T05:33:02;101571.09;;;15.53;73.00
5812;BME280;2932;52.400;9.558;2022-10-04T05:35:41;101572.41;;;15.43;72.94
5812;BME280;2932;52.400;9.558;2022-10-04T05:43:50;101574.31;;;15.55;73.80
5812;BME280;2932;52.400;9.558;2022-10-04T05:46:22;101577.47;;;15.53;73.48
5812;BME280;2932;52.400;9.558;2022-10-04T05:51:33;101580.63;;;15.52;74.11
5812;BME280;2932;52.400;9.558;2022-10-04T05:54:02;101584.00;;;15.45;74.33
5812;BME280;2932;52.400;9.558;2022-10-04T06:07:06;101576.09;;;15.59;73.82
5812;BME280;2932;52.400;9.558;2022-10-04T06:17:42;101584.47;;;15.75;73.69
5812;BME280;2932;52.400;9.558;2022-10-04T06:22:45;101580.16;;;15.78;73.18
5812;BME280;2932;52.400;9.558;2022-10-04T06:25:19;101584.28;;;15.84;73.67
5812;BME280;2932;52.400;9.558;2022-10-04T06:33:41;101586.00;;;15.88;73.66
5812;BME280;2932;52.400;9.558;2022-10-04T06:53:58;101596.81;;;16.21;72.83
5812;BME280;2932;52.400;9.558;2022-10-04T07:02:11;101597.63;;;16.22;72.89
5812;BME280;2932;52.400;9.558;2022-10-04T07:04:45;101592.13;;;16.10;72.59
5812;BME280;2932;52.400;9.558;2022-10-04T07:15:32;101583.69;;;16.38;71.91
5812;BME280;2932;52.400;9.558;2022-10-04T07:18:02;101576.88;;;16.54;71.70
5812;BME280;2932;52.400;9.558;2022-10-04T07:20:33;101577.59;;;16.51;71.97
5812;BME280;2932;52.400;9.558;2022-10-04T07:23:04;101578.09;;;16.38;72.10
5812;BME280;2932;52.400;9.558;2022-10-04T07:25:53;101580.56;;;16.43;72.03
5812;BME280;2932;52.400;9.558;2022-10-04T07:28:25;101573.50;;;16.29;72.38
5812;BME280;2932;52.400;9.558;2022-10-04T07:33:48;101582.41;;;16.35;72.83
5812;BME280;2932;52.400;9.558;2022-10-04T07:36:25;101582.13;;;16.40;72.12
5812;BME280;2932;52.400;9.558;2022-10-04T07:38:55;101592.28;;;16.48;72.11
5812;BME280;2932;52.400;9.558;2022-10-04T07:41:56;101594.44;;;16.55;71.84
5812;BME280;2932;52.400;9.558;2022-10-04T07:44:34;101598.06;;;16.71;71.76
5812;BME280;2932;52.400;9.558;2022-10-04T07:47:20;101588.66;;;16.79;72.17
5812;BME280;2932;52.400;9.558;2022-10-04T07:49:47;101593.50;;;16.82;71.20
5812;BME280;2932;52.400;9.558;2022-10-04T08:01:09;101593.41;;;17.14;71.00
5812;BME280;2932;52.400;9.558;2022-10-04T08:03:57;101596.06;;;17.26;70.69
5812;BME280;2932;52.400;9.558;2022-10-04T08:07:12;101594.00;;;17.42;70.51
5812;BME280;2932;52.400;9.558;2022-10-04T08:15:07;101590.06;;;18.08;68.67
5812;BME280;2932;52.400;9.558;2022-10-04T08:20:58;101585.72;;;18.60;67.83
5812;BME280;2932;52.400;9.558;2022-10-04T08:28:54;101580.03;;;18.83;65.70
5812;BME280;2932;52.400;9.558;2022-10-04T08:42:55;101570.88;;;18.33;67.44
5812;BME280;2932;52.400;9.558;2022-10-04T09:08:01;101582.03;;;18.56;65.42
5812;BME280;2932;52.400;9.558;2022-10-04T09:13:36;101579.38;;;18.63;65.08
5812;BME280;2932;52.400;9.558;2022-10-04T09:18:51;101578.94;;;18.61;65.32
5812;BME280;2932;52.400;9.558;2022-10-04T09:24:31;101576.50;;;19.49;64.15
5812;BME280;2932;52.400;9.558;2022-10-04T09:44:01;101558.47;;;19.17;62.18
5812;BME280;2932;52.400;9.558;2022-10-04T10:00:21;101557.00;;;19.30;60.98
5812;BME280;2932;52.400;9.558;2022-10-04T10:03:25;101553.72;;;19.54;60.80
5812;BME280;2932;52.400;9.558;2022-10-04T10:31:10;101534.88;;;21.23;55.69
5812;BME280;2932;52.400;9.558;2022-10-04T10:33:34;101517.53;;;21.14;55.70
5812;BME280;2932;52.400;9.558;2022-10-04T10:38:41;101512.41;;;21.37;55.66
5812;BME280;2932;52.400;9.558;2022-10-04T11:06:16;101501.16;;;23.56;50.59
5812;BME280;2932;52.400;9.558;2022-10-04T11:19:56;101494.53;;;23.77;49.34
5812;BME280;2932;52.400;9.558;2022-10-04T11:28:23;101479.44;;;25.64;46.36
5812;BME280;2932;52.400;9.558;2022-10-04T11:36:35;101477.72;;;25.43;45.98
5812;BME280;2932;52.400;9.558;2022-10-04T11:42:31;101489.53;;;25.38;46.08
5812;BME280;2932;52.400;9.558;2022-10-04T12:01:26;101443.41;;;29.62;40.24
5812;BME280;2932;52.400;9.558;2022-10-04T12:04:09;101448.22;;;29.52;40.04
5812;BME280;2932;52.400;9.558;2022-10-04T12:09:42;101428.59;;;31.81;38.41
5812;BME280;2932;52.400;9.558;2022-10-04T12:17:56;101428.78;;;32.14;37.72
5812;BME280;2932;52.400;9.558;2022-10-04T12:20:51;101428.13;;;33.26;36.88
5812;BME280;2932;52.400;9.558;2022-10-04T12:23:38;101410.47;;;34.23;35.93
5812;BME280;2932;52.400;9.558;2022-10-04T12:31:44;101402.13;;;36.18;33.43
5812;BME280;2932;52.400;9.558;2022-10-04T12:37:28;101400.88;;;35.29;34.08
5812;BME280;2932;52.400;9.558;2022-10-04T12:40:27;101389.16;;;34.15;34.84
5812;BME280;2932;52.400;9.558;2022-10-04T12:43:24;101391.81;;;34.03;35.36
5812;BME280;2932;52.400;9.558;2022-10-04T12:50:01;101395.81;;;32.65;35.72
5812;BME280;2932;52.400;9.558;2022-10-04T12:54:46;101376.06;;;33.18;35.60
5812;BME280;2932;52.400;9.558;2022-10-04T12:57:44;101371.78;;;33.46;35.73
5812;BME280;2932;52.400;9.558;2022-10-04T13:00:20;101365.28;;;33.61;35.54
5812;BME280;2932;52.400;9.558;2022-10-04T13:03:20;101360.22;;;32.99;35.70
5812;BME280;2932;52.400;9.558;2022-10-04T13:06:00;101353.16;;;32.76;36.65
5812;BME280;2932;52.400;9.558;2022-10-04T13:08:38;101356.69;;;32.53;36.02
5812;BME280;2932;52.400;9.558;2022-10-04T13:16:52;101350.66;;;33.02;36.07
5812;BME280;2932;52.400;9.558;2022-10-04T13:27:45;101356.28;;;33.53;34.91
5812;BME280;2932;52.400;9.558;2022-10-04T13:44:06;101329.16;;;34.61;33.63
5812;BME280;2932;52.400;9.558;2022-10-04T13:55:25;101331.78;;;33.67;34.98
5812;BME280;2932;52.400;9.558;2022-10-04T13:58:27;101310.13;;;34.63;34.55
5812;BME280;2932;52.400;9.558;2022-10-04T14:04:00;101309.97;;;35.02;33.82
5812;BME280;2932;52.400;9.558;2022-10-04T14:06:50;101308.59;;;35.73;33.34
5812;BME280;2932;52.400;9.558;2022-10-04T14:15:59;101293.56;;;35.63;33.83
5812;BME280;2932;52.400;9.558;2022-10-04T14:18:41;101280.84;;;36.22;32.36
5812;BME280;2932;52.400;9.558;2022-10-04T14:27:24;101273.84;;;38.83;30.83
5812;BME280;2932;52.400;9.558;2022-10-04T14:32:35;101275.44;;;38.50;31.20
5812;BME280;2932;52.400;9.558;2022-10-04T14:35:22;101274.66;;;38.22;31.45
5812;BME280;2932;52.400;9.558;2022-10-04T14:51:27;101270.63;;;37.21;32.64
5812;BME280;2932;52.400;9.558;2022-10-04T14:54:11;101291.50;;;34.44;34.93
5812;BME280;2932;52.400;9.558;2022-10-04T14:56:57;101273.88;;;34.22;35.54
5812;BME280;2932;52.400;9.558;2022-10-04T15:04:36;101273.59;;;35.19;34.81
5812;BME280;2932;52.400;9.558;2022-10-04T15:07:15;101270.72;;;35.60;34.67
5812;BME280;2932;52.400;9.558;2022-10-04T15:09:52;101272.50;;;36.55;33.45
5812;BME280;2932;52.400;9.558;2022-10-04T15:18:07;101286.25;;;33.98;36.34
5812;BME280;2932;52.400;9.558;2022-10-04T15:20:55;101276.44;;;32.95;37.53
5812;BME280;2932;52.400;9.558;2022-10-04T15:23:34;101282.88;;;33.13;37.10
5812;BME280;2932;52.400;9.558;2022-10-04T15:31:36;101269.44;;;31.84;37.55
5812;BME280;2932;52.400;9.558;2022-10-04T15:37:17;101244.22;;;33.00;35.91
5812;BME280;2932;52.400;9.558;2022-10-04T15:48:26;101236.69;;;34.03;34.41
5812;BME280;2932;52.400;9.558;2022-10-04T15:51:09;101252.97;;;32.21;36.27
5812;BME280;2932;52.400;9.558;2022-10-04T15:56:34;101259.59;;;32.45;36.64
5812;BME280;2932;52.400;9.558;2022-10-04T16:01:42;101260.94;;;32.35;37.40
5812;BME280;2932;52.400;9.558;2022-10-04T16:07:28;101254.13;;;31.41;38.72
5812;BME280;2932;52.400;9.558;2022-10-04T16:10:25;101248.53;;;30.39;40.38
5812;BME280;2932;52.400;9.558;2022-10-04T16:13:08;101255.44;;;29.55;42.41
5812;BME280;2932;52.400;9.558;2022-10-04T16:15:43;101259.66;;;28.77;42.85
5812;BME280;2932;52.400;9.558;2022-10-04T16:18:42;101254.41;;;28.76;43.08
5812;BME280;2932;52.400;9.558;2022-10-04T16:37:32;101259.22;;;24.37;50.49
5812;BME280;2932;52.400;9.558;2022-10-04T16:40:24;101269.81;;;23.99;51.30
5812;BME280;2932;52.400;9.558;2022-10-04T16:42:56;101266.00;;;23.79;51.40
5812;BME280;2932;52.400;9.558;2022-10-04T16:45:33;101262.91;;;23.66;52.01
5812;BME280;2932;52.400;9.558;2022-10-04T16:53:48;101270.97;;;22.71;54.31
5812;BME280;2932;52.400;9.558;2022-10-04T16:56:17;101265.44;;;22.53;54.51
5812;BME280;2932;52.400;9.558;2022-10-04T17:06:58;101259.69;;;22.78;54.52
5812;BME280;2932;52.400;9.558;2022-10-04T17:12:42;101257.78;;;22.54;54.90
5812;BME280;2932;52.400;9.558;2022-10-04T17:23:31;101256.84;;;22.02;56.09
5812;BME280;2932;52.400;9.558;2022-10-04T17:27:00;101253.22;;;22.05;56.59
5812;BME280;2932;52.400;9.558;2022-10-04T17:29:41;101252.91;;;21.78;56.34
5812;BME280;2932;52.400;9.558;2022-10-04T17:40:55;101245.16;;;22.00;56.02
5812;BME280;2932;52.400;9.558;2022-10-04T17:46:28;101243.59;;;21.91;56.44
5812;BME280;2932;52.400;9.558;2022-10-04T17:49:04;101248.06;;;21.82;56.58
5812;BME280;2932;52.400;9.558;2022-10-04T17:51:55;101255.00;;;21.52;56.79
5812;BME280;2932;52.400;9.558;2022-10-04T17:54:49;101254.59;;;21.36;57.26
5812;BME280;2932;52.400;9.558;2022-10-04T17:58:00;101252.19;;;21.31;57.50
5812;BME280;2932;52.400;9.558;2022-10-04T18:00:25;101249.00;;;21.25;57.49
5812;BME280;2932;52.400;9.558;2022-10-04T18:05:46;101233.72;;;21.05;57.74
5812;BME280;2932;52.400;9.558;2022-10-04T18:11:05;101240.13;;;20.91;58.24
5812;BME280;2932;52.400;9.558;2022-10-04T18:14:11;101230.09;;;21.05;58.04
5812;BME280;2932;52.400;9.558;2022-10-04T18:16:56;101232.91;;;21.08;57.76
5812;BME280;2932;52.400;9.558;2022-10-04T18:22:08;101237.72;;;21.04;57.19
5812;BME280;2932;52.400;9.558;2022-10-04T18:24:35;101245.78;;;21.02;57.76
5812;BME280;2932;52.400;9.558;2022-10-04T18:27:12;101247.78;;;20.91;57.94
5812;BME280;2932;52.400;9.558;2022-10-04T18:29:44;101240.53;;;20.97;57.81
5812;BME280;2932;52.400;9.558;2022-10-04T18:34:53;101254.97;;;20.53;59.02
5812;BME280;2932;52.400;9.558;2022-10-04T18:37:37;101249.34;;;20.49;59.20
5812;BME280;2932;52.400;9.558;2022-10-04T18:40:20;101250.97;;;20.64;58.89
5812;BME280;2932;52.400;9.558;2022-10-04T18:42:56;101246.16;;;20.90;58.62
5812;BME280;2932;52.400;9.558;2022-10-04T18:45:27;101257.81;;;20.81;59.04
5812;BME280;2932;52.400;9.558;2022-10-04T18:47:54;101267.47;;;20.94;58.58
5812;BME280;2932;52.400;9.558;2022-10-04T18:50:34;101253.78;;;20.82;58.75
5812;BME280;2932;52.400;9.558;2022-10-04T19:07:36;101259.41;;;20.64;58.38
5812;BME280;2932;52.400;9.558;2022-10-04T19:10:16;101261.84;;;20.73;58.72
5812;BME280;2932;52.400;9.558;2022-10-04T19:18:12;101255.34;;;20.48;58.00
5812;BME280;2932;52.400;9.558;2022-10-04T19:28:20;101238.38;;;20.12;59.17
5812;BME280;2932;52.400;9.558;2022-10-04T19:42:18;101283.06;;;19.55;60.48
5812;BME280;2932;52.400;9.558;2022-10-04T19:45:02;101286.16;;;19.47;60.39
5812;BME280;2932;52.400;9.558;2022-10-04T19:47:53;101297.19;;;19.18;61.29
5812;BME280;2932;52.400;9.558;2022-10-04T19:50:35;101289.28;;;19.35;61.32
5812;BME280;2932;52.400;9.558;2022-10-04T19:53:33;101288.31;;;19.13;61.57
5812;BME280;2932;52.400;9.558;2022-10-04T19:56:02;101285.25;;;19.32;60.90
5812;BME280;2932;52.400;9.558;2022-10-04T20:01:10;101255.72;;;19.49;60.53
5812;BME280;2932;52.400;9.558;2022-10-04T20:03:36;101240.97;;;19.59;60.40
5812;BME280;2932;52.400;9.558;2022-10-04T20:06:02;101254.81;;;19.38;60.46
5812;BME280;2932;52.400;9.558;2022-10-04T20:13:43;101253.44;;;19.10;60.82
5812;BME280;2932;52.400;9.558;2022-10-04T20:16:08;101260.69;;;19.15;60.95
5812;BME280;2932;52.400;9.558;2022-10-04T20:21:10;101253.06;;;19.15;61.64
5812;BME280;2932;52.400;9.558;2022-10-04T20:30:54;101253.47;;;19.14;61.21
5812;BME280;2932;52.400;9.558;2022-10-04T20:36:08;101246.69;;;19.22;61.08
5812;BME280;2932;52.400;9.558;2022-10-04T20:41:40;101250.16;;;19.01;61.39
5812;BME280;2932;52.400;9.558;2022-10-04T20:44:49;101245.34;;;19.02;61.28
5812;BME280;2932;52.400;9.558;2022-10-04T20:50:06;101252.78;;;19.31;61.57
5812;BME280;2932;52.400;9.558;2022-10-04T20:52:41;101251.53;;;19.28;60.78
5812;BME280;2932;52.400;9.558;2022-10-04T20:55:17;101263.59;;;19.32;60.40
5812;BME280;2932;52.400;9.558;2022-10-04T20:57:43;101267.38;;;18.99;61.82
5812;BME280;2932;52.400;9.558;2022-10-04T21:00:22;101268.94;;;18.97;61.70
5812;BME280;2932;52.400;9.558;2022-10-04T21:02:48;101269.25;;;18.88;61.51
5812;BME280;2932;52.400;9.558;2022-10-04T21:05:21;101272.03;;;18.85;62.17
5812;BME280;2932;52.400;9.558;2022-10-04T21:07:48;101269.63;;;18.83;61.63
5812;BME280;2932;52.400;9.558;2022-10-04T21:10:18;101261.66;;;18.89;62.11
5812;BME280;2932;52.400;9.558;2022-10-04T21:12:44;101256.78;;;18.82;61.96
5812;BME280;2932;52.400;9.558;2022-10-04T21:18:03;101252.72;;;18.73;61.99
5812;BME280;2932;52.400;9.558;2022-10-04T21:20:49;101242.81;;;18.49;62.48
5812;BME280;2932;52.400;9.558;2022-10-04T21:23:34;101233.09;;;18.36;62.96
5812;BME280;2932;52.400;9.558;2022-10-04T21:26:18;101218.00;;;18.47;62.70
5812;BME280;2932;52.400;9.558;2022-10-04T21:28:45;101209.44;;;18.70;62.27
5812;BME280;2932;52.400;9.558;2022-10-04T21:31:11;101199.25;;;18.55;62.72
5812;BME280;2932;52.400;9.558;2022-10-04T21:33:36;101215.00;;;18.67;62.40
5812;BME280;2932;52.400;9.558;2022-10-04T21:36:03;101211.28;;;18.55;62.01
5812;BME280;2932;52.400;9.558;2022-10-04T21:38:29;101212.22;;;18.67;62.04
5812;BME280;2932;52.400;9.558;2022-10-04T21:40:55;101211.63;;;18.50;62.26
5812;BME280;2932;52.400;9.558;2022-10-04T21:43:22;101208.81;;;18.50;62.53
5812;BME280;2932;52.400;9.558;2022-10-04T21:45:48;101214.00;;;18.48;62.36
5812;BME280;2932;52.400;9.558;2022-10-04T21:48:13;101211.28;;;18.55;62.61
5812;BME280;2932;52.400;9.558;2022-10-04T21:50:38;101209.25;;;18.52;62.70
5812;BME280;2932;52.400;9.558;2022-10-04T21:53:04;101205.47;;;18.75;61.85
5812;BME280;2932;52.400;9.558;2022-10-04T21:55:29;101207.13;;;18.83;61.85
5812;BME280;2932;52.400;9.558;2022-10-04T21:57:55;101217.53;;;18.79;62.38
5812;BME280;2932;52.400;9.558;2022-10-04T22:00:20;101215.53;;;18.83;61.69
5812;BME280;2932;52.400;9.558;2022-10-04T22:02:45;101216.69;;;18.75;62.24
5812;BME280;2932;52.400;9.558;2022-10-04T22:05:11;101216.75;;;18.85;61.61
5812;BME280;2932;52.400;9.558;2022-10-04T22:07:36;101213.25;;;18.95;61.62
5812;BME280;2932;52.400;9.558;2022-10-04T22:10:02;101223.63;;;18.91;61.79
5812;BME280;2932;52.400;9.558;2022-10-04T22:12:27;101229.13;;;18.77;62.26
5812;BME280;2932;52.400;9.558;2022-10-04T22:14:53;101232.63;;;18.67;62.16
5812;BME280;2932;52.400;9.558;2022-10-04T22:17:18;101240.53;;;18.58;62.42
5812;BME280;2932;52.400;9.558;2022-10-04T22:19:43;101248.06;;;18.50;63.05
5812;BME280;2932;52.400;9.558;2022-10-04T22:22:15;101235.50;;;18.74;62.81
5812;BME280;2932;52.400;9.558;2022-10-04T22:24:41;101237.31;;;18.56;62.76
5812;BME280;2932;52.400;9.558;2022-10-04T22:27:15;101231.38;;;18.61;62.65
5812;BME280;2932;52.400;9.558;2022-10-04T22:29:41;101231.00;;;18.62;62.83
5812;BME280;2932;52.400;9.558;2022-10-04T22:32:12;101227.81;;;18.64;62.76
5812;BME280;2932;52.400;9.558;2022-10-04T22:34:41;101237.97;;;18.79;62.20
5812;BME280;2932;52.400;9.558;2022-10-04T22:37:09;101239.47;;;18.70;62.60
5812;BME280;2932;52.400;9.558;2022-10-04T22:39:35;101240.59;;;18.61;63.05
5812;BME280;2932;52.400;9.558;2022-10-04T22:42:01;101235.38;;;18.60;62.86
5812;BME280;2932;52.400;9.558;2022-10-04T22:46:56;101247.25;;;18.50;62.67
5812;BME280;2932;52.400;9.558;2022-10-04T22:49:27;101245.13;;;18.40;63.17
5812;BME280;2932;52.400;9.558;2022-10-04T22:51:55;101253.22;;;18.11;63.62
5812;BME280;2932;52.400;9.558;2022-10-04T22:54:24;101256.06;;;18.15;63.84
5812;BME280;2932;52.400;9.558;2022-10-04T22:56:51;101256.75;;;18.05;64.28
5812;BME280;2932;52.400;9.558;2022-10-04T22:59:18;101249.88;;;17.98;64.56
5812;BME280;2932;52.400;9.558;2022-10-04T23:01:44;101255.94;;;18.04;64.54
5812;BME280;2932;52.400;9.558;2022-10-04T23:04:15;101253.31;;;18.18;64.08
5812;BME280;2932;52.400;9.558;2022-10-04T23:06:43;101238.47;;;18.14;64.24
5812;BME280;2932;52.400;9.558;2022-10-04T23:09:08;101235.41;;;18.26;64.01
5812;BME280;2932;52.400;9.558;2022-10-04T23:11:33;101239.13;;;18.38;63.28
5812;BME280;2932;52.400;9.558;2022-10-04T23:13:59;101228.88;;;18.15;63.78
5812;BME280;2932;52.400;9.558;2022-10-04T23:16:24;101216.44;;;18.13;64.53
5812;BME280;2932;52.400;9.558;2022-10-04T23:19:00;101216.84;;;18.15;64.21
5812;BME280;2932;52.400;9.558;2022-10-04T23:21:32;101222.66;;;18.32;63.27
5812;BME280;2932;52.400;9.558;2022-10-04T23:24:04;101224.13;;;18.19;64.14
5812;BME280;2932;52.400;9.558;2022-10-04T23:26:37;101231.34;;;18.20;63.73
5812;BME280;2932;52.400;9.558;2022-10-04T23:29:14;101216.94;;;18.22;63.89